createdAt,value
2023-02-07T00:01:13.696Z,10.43
2023-02-07T00:03:41.242Z,10.87
2023-02-07T00:06:18.589Z,9.97
2023-02-07T00:08:45.856Z,10.37
2023-02-07T00:11:17.141Z,9.60
2023-02-07T00:13:47.105Z,10.00
2023-02-07T00:16:14.638Z,11.50
2023-02-07T00:18:42.260Z,11.27
2023-02-07T00:21:16.351Z,12.13
2023-02-07T00:23:44.106Z,14.40
2023-02-07T00:26:12.734Z,11.80
2023-02-07T00:28:42.520Z,12.73
2023-02-07T00:31:12.715Z,10.57
2023-02-07T00:33:45.307Z,14.97
2023-02-07T00:36:15.988Z,13.87
2023-02-07T00:38:46.370Z,14.33
2023-02-07T00:41:15.374Z,14.93
2023-02-07T00:43:43.666Z,14.43
2023-02-07T00:46:12.584Z,14.90
2023-02-07T00:48:40.444Z,15.40
2023-02-07T00:51:12.621Z,15.57
2023-02-07T00:53:40.715Z,15.80
2023-02-07T00:56:08.792Z,14.10
2023-02-07T00:58:38.160Z,16.03
2023-02-07T01:01:07.316Z,15.77
2023-02-07T01:03:35.248Z,17.37
2023-02-07T01:06:02.361Z,15.93
2023-02-07T01:08:29.596Z,16.00
2023-02-07T01:10:57.496Z,16.50
2023-02-07T01:13:24.357Z,15.27
2023-02-07T01:15:51.196Z,16.73
2023-02-07T01:18:18.844Z,17.87
2023-02-07T01:20:45.965Z,15.60
2023-02-07T01:23:14.904Z,19.17
2023-02-07T01:25:44.189Z,16.60
2023-02-07T01:28:12.114Z,15.13
2023-02-07T01:30:40.758Z,18.43
2023-02-07T01:33:08.266Z,17.87
2023-02-07T01:35:36.083Z,18.73
2023-02-07T01:38:03.155Z,18.93
2023-02-07T01:40:31.872Z,18.43
2023-02-07T01:42:59.344Z,17.03
2023-02-07T01:45:29.159Z,18.57
2023-02-07T01:47:59.751Z,20.77
2023-02-07T01:50:27.071Z,19.90
2023-02-07T01:52:54.963Z,17.03
2023-02-07T01:55:27.654Z,19.53
2023-02-07T01:57:55.004Z,17.30
2023-02-07T02:00:22.143Z,19.37
2023-02-07T02:02:49.240Z,20.17
2023-02-07T02:05:17.885Z,18.70
2023-02-07T02:07:45.018Z,18.03
2023-02-07T02:10:21.873Z,15.90
2023-02-07T02:13:22.971Z,18.23
2023-02-07T02:16:20.360Z,17.20
2023-02-07T02:19:11.855Z,16.03
2023-02-07T02:22:07.381Z,17.80
2023-02-07T02:24:44.058Z,16.03
2023-02-07T02:27:32.953Z,21.30
2023-02-07T02:30:33.698Z,15.13
2023-02-07T02:33:06.308Z,18.93
2023-02-07T02:35:39.632Z,17.77
2023-02-07T02:38:39.115Z,17.63
2023-02-07T02:41:18.152Z,20.77
2023-02-07T02:43:49.605Z,17.63
2023-02-07T02:46:31.652Z,20.27
2023-02-07T02:49:02.049Z,20.33
2023-02-07T02:51:32.823Z,20.30
2023-02-07T02:54:01.104Z,20.20
2023-02-07T02:56:39.224Z,19.17
2023-02-07T02:59:15.383Z,18.00
2023-02-07T03:01:49.602Z,20.93
2023-02-07T03:04:38.451Z,20.60
2023-02-07T03:07:17.502Z,20.83
2023-02-07T03:09:53.527Z,18.83
2023-02-07T03:12:29.243Z,18.37
2023-02-07T03:15:03.386Z,18.57
2023-02-07T03:18:00.079Z,16.73
2023-02-07T03:20:33.364Z,17.13
2023-02-07T03:23:02.507Z,17.27
2023-02-07T03:25:32.439Z,17.87
2023-02-07T03:28:01.690Z,15.53
2023-02-07T03:30:33.340Z,13.87
2023-02-07T03:33:05.185Z,17.70
2023-02-07T03:35:41.141Z,18.20
2023-02-07T03:38:08.724Z,15.67
2023-02-07T03:40:40.562Z,14.83
2023-02-07T03:43:24.690Z,15.20
2023-02-07T03:45:51.785Z,17.83
2023-02-07T03:48:18.894Z,16.60
2023-02-07T03:50:47.716Z,17.57
2023-02-07T03:53:14.746Z,20.40
2023-02-07T03:55:41.716Z,23.37
2023-02-07T03:58:09.650Z,20.07
2023-02-07T04:00:37.222Z,19.10
2023-02-07T04:03:05.147Z,19.33
2023-02-07T04:05:32.112Z,20.17
2023-02-07T04:07:59.141Z,20.13
2023-02-07T04:10:26.157Z,18.97
2023-02-07T04:12:53.005Z,20.47
2023-02-07T04:15:20.042Z,18.97
2023-02-07T04:17:47.048Z,18.23
2023-02-07T04:20:14.234Z,19.03
2023-02-07T04:22:41.193Z,17.53
2023-02-07T04:25:08.746Z,18.30
2023-02-07T04:27:35.774Z,18.77
2023-02-07T04:30:02.931Z,19.30
2023-02-07T04:32:29.884Z,17.47
2023-02-07T04:34:56.934Z,18.80
2023-02-07T04:37:24.003Z,18.07
2023-02-07T04:39:51.028Z,15.87
2023-02-07T04:42:18.053Z,16.13
2023-02-07T04:44:44.981Z,14.93
2023-02-07T04:47:11.960Z,13.47
2023-02-07T04:49:39.612Z,21.07
2023-02-07T04:52:06.606Z,25.90
2023-02-07T04:54:33.793Z,32.77
2023-02-07T04:57:00.791Z,23.27
2023-02-07T04:59:27.690Z,19.27
2023-02-07T05:01:54.658Z,21.40
2023-02-07T05:04:21.681Z,17.03
2023-02-07T05:06:48.757Z,16.30
2023-02-07T05:09:15.786Z,17.17
2023-02-07T05:11:42.829Z,17.40
2023-02-07T05:14:09.727Z,16.80
2023-02-07T05:16:36.801Z,19.47
2023-02-07T05:19:04.933Z,19.67
2023-02-07T05:21:32.076Z,18.50
2023-02-07T05:23:59.181Z,17.13
2023-02-07T05:26:26.032Z,18.27
2023-02-07T05:28:53.076Z,20.33
2023-02-07T05:31:20.098Z,15.80
2023-02-07T05:33:47.164Z,17.20
2023-02-07T05:36:14.152Z,17.57
2023-02-07T05:38:41.190Z,16.97
2023-02-07T05:41:08.375Z,17.13
2023-02-07T05:43:35.230Z,21.50
2023-02-07T05:46:02.174Z,22.60
2023-02-07T05:48:29.164Z,21.30
2023-02-07T05:50:56.251Z,23.87
2023-02-07T05:53:23.184Z,18.67
2023-02-07T05:55:52.232Z,18.60
2023-02-07T05:58:24.082Z,17.83
2023-02-07T06:01:03.000Z,19.97
2023-02-07T06:03:33.199Z,17.67
2023-02-07T06:06:02.723Z,18.37
2023-02-07T06:08:32.860Z,19.40
2023-02-07T06:10:59.917Z,15.97
2023-02-07T06:13:27.021Z,15.73
2023-02-07T06:15:54.056Z,15.80
2023-02-07T06:18:21.106Z,16.53
2023-02-07T06:20:50.811Z,19.23
2023-02-07T06:23:17.777Z,15.13
2023-02-07T06:25:45.288Z,20.10
2023-02-07T06:28:12.268Z,15.77
2023-02-07T06:30:39.230Z,14.17
2023-02-07T06:33:06.169Z,20.03
2023-02-07T06:35:33.061Z,18.23
2023-02-07T06:38:00.286Z,13.40
2023-02-07T06:40:27.320Z,14.03
2023-02-07T06:42:55.240Z,16.23
2023-02-07T06:45:22.284Z,16.07
2023-02-07T06:47:49.070Z,17.20
2023-02-07T06:50:16.141Z,18.03
2023-02-07T06:52:43.083Z,15.53
2023-02-07T06:55:10.140Z,15.47
2023-02-07T06:57:37.073Z,16.53
2023-02-07T07:00:05.673Z,17.27
2023-02-07T07:02:32.753Z,15.70
2023-02-07T07:04:59.693Z,16.97
2023-02-07T07:07:26.782Z,15.40
2023-02-07T07:09:53.617Z,22.17
2023-02-07T07:12:20.471Z,18.57
2023-02-07T07:14:47.219Z,17.70
2023-02-07T07:17:15.315Z,17.23
2023-02-07T07:19:42.033Z,16.50
2023-02-07T07:22:08.767Z,19.67
2023-02-07T07:24:35.578Z,19.27
2023-02-07T07:27:02.322Z,22.67
2023-02-07T07:29:29.061Z,17.83
2023-02-07T07:31:55.859Z,16.90
2023-02-07T07:34:22.656Z,21.37
2023-02-07T07:36:49.698Z,21.20
2023-02-07T07:39:17.086Z,17.50
2023-02-07T07:41:43.880Z,15.80
2023-02-07T07:44:18.033Z,15.37
2023-02-07T07:46:44.826Z,15.27
2023-02-07T07:49:11.910Z,17.77
2023-02-07T07:51:38.680Z,18.00
2023-02-07T07:54:05.438Z,18.60
2023-02-07T07:56:32.785Z,12.77
2023-02-07T07:59:01.551Z,15.13
2023-02-07T08:01:30.246Z,13.23
2023-02-07T08:03:57.011Z,15.77
2023-02-07T08:06:23.848Z,14.43
2023-02-07T08:08:50.576Z,13.87
2023-02-07T08:11:17.383Z,14.60
2023-02-07T08:13:44.140Z,14.43
2023-02-07T08:16:14.346Z,15.77
2023-02-07T08:18:41.375Z,13.77
2023-02-07T08:21:08.217Z,16.20
2023-02-07T08:23:36.916Z,12.17
2023-02-07T08:26:04.267Z,12.67
2023-02-07T08:28:31.637Z,12.70
2023-02-07T08:31:02.790Z,12.87
2023-02-07T08:33:30.441Z,10.77
2023-02-07T08:36:01.773Z,13.60
2023-02-07T08:38:28.827Z,11.00
2023-02-07T08:40:55.561Z,12.30
2023-02-07T08:43:22.370Z,11.43
2023-02-07T08:45:49.226Z,10.00
2023-02-07T08:48:16.070Z,12.23
2023-02-07T08:50:42.885Z,8.60
2023-02-07T08:53:10.108Z,11.00
2023-02-07T08:55:37.145Z,9.60
2023-02-07T08:58:03.904Z,10.03
2023-02-07T09:00:30.617Z,11.03
2023-02-07T09:02:57.585Z,10.60
2023-02-07T09:05:24.638Z,10.97
2023-02-07T09:07:51.354Z,12.63
2023-02-07T09:10:18.169Z,12.33
2023-02-07T09:12:45.016Z,8.57
2023-02-07T09:15:11.791Z,10.20
2023-02-07T09:17:38.552Z,12.63
2023-02-07T09:20:06.068Z,11.73
2023-02-07T09:22:52.931Z,11.87
2023-02-07T09:25:19.657Z,9.20
2023-02-07T09:27:46.426Z,11.23
2023-02-07T09:30:13.390Z,12.07
2023-02-07T09:32:40.131Z,14.63
2023-02-07T09:35:08.431Z,10.53
2023-02-07T09:37:48.892Z,10.03
2023-02-07T09:40:19.385Z,9.60
2023-02-07T09:42:58.776Z,9.77
2023-02-07T09:45:31.383Z,11.23
2023-02-07T09:48:11.177Z,8.70
2023-02-07T09:50:45.766Z,10.73
2023-02-07T09:53:16.665Z,10.87
2023-02-07T09:56:10.653Z,12.47
2023-02-07T09:58:50.554Z,11.23
2023-02-07T10:01:25.648Z,9.40
2023-02-07T10:04:08.185Z,8.53
2023-02-07T10:06:36.627Z,10.60
2023-02-07T10:09:03.491Z,14.97
2023-02-07T10:11:49.687Z,12.67
2023-02-07T10:14:56.463Z,8.53
2023-02-07T10:17:52.752Z,10.30
2023-02-07T10:20:28.607Z,9.30
2023-02-07T10:23:15.672Z,13.57
2023-02-07T10:26:01.075Z,10.20
2023-02-07T10:28:36.637Z,8.47
2023-02-07T10:31:11.933Z,9.47
2023-02-07T10:33:43.442Z,9.43
2023-02-07T10:36:15.053Z,8.23
2023-02-07T10:39:09.442Z,7.43
2023-02-07T10:41:44.143Z,8.13
2023-02-07T10:44:17.957Z,8.17
2023-02-07T10:46:48.078Z,8.43
2023-02-07T10:49:27.435Z,8.77
2023-02-07T10:52:13.695Z,11.13
2023-02-07T10:55:01.077Z,8.20
2023-02-07T10:57:29.169Z,7.73
2023-02-07T11:00:34.560Z,9.00
2023-02-07T11:03:03.258Z,7.27
2023-02-07T11:05:33.137Z,8.17
2023-02-07T11:08:01.716Z,7.60
2023-02-07T11:10:34.220Z,8.47
2023-02-07T11:13:01.763Z,12.40
2023-02-07T11:16:07.110Z,7.93
2023-02-07T11:18:37.618Z,7.73
2023-02-07T11:21:07.317Z,9.03
2023-02-07T11:23:34.431Z,11.47
2023-02-07T11:26:03.133Z,8.80
2023-02-07T11:28:32.646Z,8.53
2023-02-07T11:31:07.861Z,8.10
2023-02-07T11:33:36.813Z,7.80
2023-02-07T11:36:23.616Z,10.40
2023-02-07T11:38:56.047Z,8.70
2023-02-07T11:41:32.518Z,12.07
2023-02-07T11:44:14.615Z,7.30
2023-02-07T11:46:46.150Z,7.93
2023-02-07T11:49:28.721Z,6.13
2023-02-07T11:52:01.621Z,8.83
2023-02-07T11:54:31.022Z,11.13
2023-02-07T11:57:13.061Z,8.63
2023-02-07T11:59:54.487Z,6.67
2023-02-07T12:02:25.400Z,7.07
2023-02-07T12:04:54.959Z,7.83
2023-02-07T12:07:29.129Z,8.17
2023-02-07T12:09:59.976Z,7.97
2023-02-07T12:12:56.073Z,5.70
2023-02-07T12:15:40.105Z,7.20
2023-02-07T12:18:27.175Z,7.83
2023-02-07T12:20:56.953Z,8.83
2023-02-07T12:23:43.327Z,7.27
2023-02-07T12:26:51.649Z,7.50
2023-02-07T12:29:49.249Z,5.73
2023-02-07T12:32:51.184Z,7.70
2023-02-07T12:35:27.315Z,8.17
2023-02-07T12:38:24.316Z,7.00
2023-02-07T12:41:15.427Z,8.03
2023-02-07T12:43:51.372Z,9.37
2023-02-07T12:46:34.560Z,7.77
2023-02-07T12:49:14.223Z,8.23
2023-02-07T12:51:55.962Z,6.77
2023-02-07T12:54:47.449Z,5.83
2023-02-07T12:57:35.862Z,7.13
2023-02-07T13:00:04.023Z,7.27
2023-02-07T13:02:35.029Z,6.47
2023-02-07T13:05:40.058Z,6.40
2023-02-07T13:08:28.173Z,7.10
2023-02-07T13:11:16.397Z,8.83
2023-02-07T13:14:00.868Z,6.90
2023-02-07T13:17:00.123Z,6.10
2023-02-07T13:19:48.635Z,7.90
2023-02-07T13:22:18.608Z,6.47
2023-02-07T13:24:48.020Z,8.03
2023-02-07T13:27:20.904Z,8.27
2023-02-07T13:29:50.564Z,5.30
2023-02-07T13:32:26.190Z,9.87
2023-02-07T13:35:02.122Z,8.33
2023-02-07T13:37:52.550Z,7.07
2023-02-07T13:40:55.621Z,6.83
2023-02-07T13:43:50.859Z,6.33
2023-02-07T13:46:37.056Z,7.27
2023-02-07T13:49:16.257Z,8.30
2023-02-07T13:52:03.159Z,5.47
2023-02-07T13:54:41.962Z,6.83
2023-02-07T13:57:57.017Z,7.47
2023-02-07T14:00:27.839Z,8.60
2023-02-07T14:02:56.847Z,7.07
2023-02-07T14:05:37.411Z,6.90
2023-02-07T14:08:22.128Z,7.50
2023-02-07T14:10:54.689Z,7.57
2023-02-07T14:13:26.127Z,6.13
2023-02-07T14:15:57.990Z,5.63
2023-02-07T14:18:40.825Z,6.90
2023-02-07T14:21:22.269Z,10.73
2023-02-07T14:24:02.567Z,8.20
2023-02-07T14:26:41.205Z,8.93
2023-02-07T14:29:23.271Z,6.70
2023-02-07T14:31:54.465Z,6.07
2023-02-07T14:34:22.898Z,5.07
2023-02-07T14:36:49.980Z,5.83
2023-02-07T14:39:19.753Z,5.80
2023-02-07T14:41:49.347Z,7.03
2023-02-07T14:44:32.596Z,6.20
2023-02-07T14:47:01.223Z,6.60
2023-02-07T14:50:00.136Z,7.77
2023-02-07T14:52:35.337Z,9.97
2023-02-07T14:55:08.072Z,10.23
2023-02-07T14:58:02.242Z,8.03
2023-02-07T15:00:43.502Z,10.17
2023-02-07T15:03:14.637Z,8.53
2023-02-07T15:06:30.792Z,8.93
2023-02-07T15:09:00.844Z,7.63
2023-02-07T15:11:29.412Z,8.70
2023-02-07T15:13:59.472Z,11.63
2023-02-07T15:16:38.229Z,8.53
2023-02-07T15:19:36.754Z,8.53
2023-02-07T15:22:14.227Z,9.07
2023-02-07T15:24:51.814Z,11.03
2023-02-07T15:27:24.648Z,8.90
2023-02-07T15:30:00.578Z,10.97
2023-02-07T15:32:30.812Z,10.07
2023-02-07T15:35:06.839Z,9.67
2023-02-07T15:37:33.552Z,8.93
2023-02-07T15:40:01.131Z,8.00
2023-02-07T15:42:28.608Z,7.20
2023-02-07T15:44:57.625Z,7.90
2023-02-07T15:47:38.889Z,8.50
2023-02-07T15:50:13.488Z,7.93
2023-02-07T15:52:45.193Z,12.47
2023-02-07T15:55:45.742Z,11.33
2023-02-07T15:58:38.959Z,10.70
2023-02-07T16:01:15.880Z,8.80
2023-02-07T16:03:45.921Z,7.70
2023-02-07T16:06:23.227Z,7.90
2023-02-07T16:09:00.851Z,8.87
2023-02-07T16:11:27.506Z,8.27
2023-02-07T16:14:01.136Z,10.43
2023-02-07T16:16:40.922Z,9.77
2023-02-07T16:19:28.885Z,11.23
2023-02-07T16:22:04.956Z,9.63
2023-02-07T16:24:34.931Z,8.03
2023-02-07T16:27:02.178Z,11.23
2023-02-07T16:29:28.982Z,13.23
2023-02-07T16:31:56.391Z,15.40
2023-02-07T16:34:24.075Z,14.43
2023-02-07T16:36:55.899Z,23.20
2023-02-07T16:39:25.419Z,26.07
2023-02-07T16:41:56.153Z,22.10
2023-02-07T16:44:25.434Z,19.07
2023-02-07T16:46:52.477Z,19.03
2023-02-07T16:49:24.630Z,14.50
2023-02-07T16:51:52.014Z,15.50
2023-02-07T16:54:19.279Z,15.80
2023-02-07T16:56:48.920Z,13.67
2023-02-07T16:59:24.163Z,16.13
2023-02-07T17:01:53.516Z,13.80
2023-02-07T17:04:21.187Z,12.50
2023-02-07T17:06:48.422Z,12.77
2023-02-07T17:09:25.449Z,13.07
2023-02-07T17:11:53.524Z,16.90
2023-02-07T17:14:20.870Z,12.43
2023-02-07T17:16:47.813Z,14.00
2023-02-07T17:19:22.953Z,12.20
2023-02-07T17:21:50.972Z,12.73
2023-02-07T17:24:18.384Z,16.07
2023-02-07T17:26:48.400Z,10.93
2023-02-07T17:29:16.404Z,10.27
2023-02-07T17:31:43.944Z,10.60
2023-02-07T17:34:11.239Z,13.97
2023-02-07T17:36:42.110Z,23.90
2023-02-07T17:39:12.693Z,20.33
2023-02-07T17:41:39.673Z,21.30
2023-02-07T17:44:06.493Z,20.93
2023-02-07T17:46:33.491Z,16.23
2023-02-07T17:49:01.221Z,13.23
2023-02-07T17:51:28.808Z,13.40
2023-02-07T17:53:56.425Z,10.73
2023-02-07T17:56:28.381Z,13.17
2023-02-07T17:58:57.571Z,12.40
2023-02-07T18:01:24.682Z,9.30
2023-02-07T18:03:54.892Z,10.43
2023-02-07T18:06:27.920Z,14.77
2023-02-07T18:08:57.436Z,12.30
2023-02-07T18:11:24.936Z,13.70
2023-02-07T18:13:51.714Z,10.83
2023-02-07T18:16:24.541Z,20.33
2023-02-07T18:18:52.812Z,18.50
2023-02-07T18:21:20.188Z,27.87
2023-02-07T18:23:47.213Z,23.33
2023-02-07T18:26:16.253Z,16.53
2023-02-07T18:28:44.021Z,15.20
2023-02-07T18:31:23.874Z,13.03
2023-02-07T18:33:52.195Z,14.83
2023-02-07T18:36:20.286Z,19.63
2023-02-07T18:38:47.062Z,13.07
2023-02-07T18:41:16.744Z,13.23
2023-02-07T18:43:43.558Z,11.63
2023-02-07T18:46:13.172Z,11.10
2023-02-07T18:48:40.011Z,9.27
2023-02-07T18:51:10.299Z,12.83
2023-02-07T18:53:37.873Z,14.37
2023-02-07T18:56:13.465Z,13.77
2023-02-07T18:58:40.229Z,14.03
2023-02-07T19:01:10.390Z,12.07
2023-02-07T19:03:38.479Z,11.37
2023-02-07T19:06:08.910Z,13.57
2023-02-07T19:08:36.494Z,10.93
2023-02-07T19:11:06.040Z,12.00
2023-02-07T19:13:35.027Z,13.53
2023-02-07T19:16:06.656Z,14.43
2023-02-07T19:18:33.882Z,11.77
2023-02-07T19:21:06.131Z,11.83
2023-02-07T19:23:33.274Z,12.10
2023-02-07T19:26:00.135Z,12.07
2023-02-07T19:28:27.322Z,8.80
2023-02-07T19:30:54.369Z,10.57
2023-02-07T19:33:21.234Z,10.00
2023-02-07T19:35:47.990Z,10.17
2023-02-07T19:38:16.790Z,11.33
2023-02-07T19:40:44.393Z,13.70
2023-02-07T19:43:12.208Z,12.33
2023-02-07T19:45:38.956Z,17.47
2023-02-07T19:48:05.723Z,13.67
2023-02-07T19:50:32.534Z,13.63
2023-02-07T19:52:59.265Z,11.17
2023-02-07T19:55:26.041Z,11.23
2023-02-07T19:57:53.452Z,13.67
2023-02-07T20:00:20.302Z,12.37
2023-02-07T20:02:47.044Z,10.57
2023-02-07T20:05:13.770Z,13.20
2023-02-07T20:07:40.454Z,10.93
2023-02-07T20:10:07.730Z,11.33
2023-02-07T20:12:34.459Z,10.40
2023-02-07T20:15:01.241Z,13.47
2023-02-07T20:17:28.103Z,14.77
2023-02-07T20:19:54.898Z,12.73
2023-02-07T20:22:21.750Z,13.13
2023-02-07T20:24:48.610Z,14.30
2023-02-07T20:27:15.332Z,11.37
2023-02-07T20:29:42.131Z,17.20
2023-02-07T20:32:12.575Z,19.57
2023-02-07T20:34:40.779Z,15.10
2023-02-07T20:37:08.556Z,15.60
2023-02-07T20:39:35.385Z,12.03
2023-02-07T20:42:02.385Z,15.60
2023-02-07T20:44:29.420Z,16.53
2023-02-07T20:46:57.543Z,15.17
2023-02-07T20:49:29.976Z,13.80
2023-02-07T20:51:58.657Z,10.87
2023-02-07T20:54:27.675Z,11.87
2023-02-07T20:56:55.836Z,14.20
2023-02-07T20:59:25.638Z,13.17
2023-02-07T21:01:53.466Z,10.00
2023-02-07T21:04:20.720Z,11.07
2023-02-07T21:06:47.829Z,10.87
2023-02-07T21:09:14.853Z,11.47
2023-02-07T21:11:48.297Z,10.67
2023-02-07T21:14:26.929Z,12.97
2023-02-07T21:16:56.189Z,14.60
2023-02-07T21:19:24.126Z,14.20
2023-02-07T21:21:51.742Z,12.07
2023-02-07T21:24:19.221Z,14.10
2023-02-07T21:26:49.156Z,10.77
2023-02-07T21:29:16.189Z,11.23
2023-02-07T21:31:43.212Z,8.63
2023-02-07T21:34:09.951Z,8.77
2023-02-07T21:36:40.362Z,10.83
2023-02-07T21:39:12.133Z,9.20
2023-02-07T21:41:41.541Z,11.23
2023-02-07T21:44:09.243Z,16.17
2023-02-07T21:46:37.802Z,9.50
2023-02-07T21:49:11.228Z,11.63
2023-02-07T21:51:37.985Z,16.17
2023-02-07T21:54:07.296Z,11.13
2023-02-07T21:56:37.468Z,10.30
2023-02-07T21:59:10.961Z,9.77
2023-02-07T22:01:38.329Z,15.13
2023-02-07T22:04:06.489Z,10.70
2023-02-07T22:06:33.516Z,11.10
2023-02-07T22:09:02.034Z,11.13
2023-02-07T22:11:33.628Z,10.47
2023-02-07T22:14:01.615Z,14.10
2023-02-07T22:16:30.031Z,11.60
2023-02-07T22:18:58.492Z,11.93
2023-02-07T22:21:28.224Z,10.60
2023-02-07T22:23:56.059Z,10.67
2023-02-07T22:26:23.636Z,11.67
2023-02-07T22:28:50.806Z,14.57
2023-02-07T22:31:24.500Z,12.90
2023-02-07T22:33:53.501Z,13.23
2023-02-07T22:36:26.588Z,11.73
2023-02-07T22:38:54.601Z,13.00
2023-02-07T22:41:21.995Z,12.43
2023-02-07T22:43:49.279Z,12.40
2023-02-07T22:46:18.371Z,11.43
2023-02-07T22:48:45.821Z,9.83
2023-02-07T22:51:34.350Z,10.53
2023-02-07T22:54:05.518Z,9.73
2023-02-07T22:56:33.416Z,9.17
2023-02-07T22:59:00.763Z,9.80
2023-02-07T23:01:34.455Z,12.90
2023-02-07T23:04:05.854Z,9.90
2023-02-07T23:06:33.161Z,9.30
2023-02-07T23:09:00.703Z,9.83
2023-02-07T23:11:27.619Z,9.50
2023-02-07T23:13:54.353Z,11.20
2023-02-07T23:16:23.910Z,10.53
2023-02-07T23:18:52.478Z,11.53
2023-02-07T23:21:21.729Z,11.40
2023-02-07T23:23:49.078Z,11.53
2023-02-07T23:26:19.057Z,7.97
2023-02-07T23:28:46.563Z,13.07
2023-02-07T23:31:16.838Z,11.23
2023-02-07T23:33:44.061Z,9.70
2023-02-07T23:36:11.227Z,9.90
2023-02-07T23:38:38.249Z,9.63
2023-02-07T23:41:07.141Z,8.17
2023-02-07T23:43:35.907Z,10.00
2023-02-07T23:46:03.031Z,10.53
2023-02-07T23:48:30.050Z,9.90
2023-02-07T23:50:58.328Z,13.13
2023-02-07T23:53:25.939Z,12.07
2023-02-07T23:55:54.602Z,14.47
2023-02-07T23:58:22.272Z,10.37
